Time;durP1;ratioP1;P1;durP2;ratioP2;P2;SDS_P1;SDS_P2;PMS_P1;PMS_P2;Temp;Humidity;BMP_temperature;BMP_pressure;BME280_temperature;BME280_humidity;BME280_pressure;Samples;Min_cycle;Max_cycle;Signal;HPM_P1;HPM_P2
2023/06/22 00:02:02;;;;;;;5.05;3.20;;;;;;;;;;5052043;28;20029;-84
2023/06/22 00:04:28;;;;;;;3.92;2.88;;;;;;;;;;5051289;28;20033;-84
2023/06/22 00:06:56;;;;;;;4.70;3.25;;;;;;;;;;5034219;28;20041;-84
2023/06/22 00:09:22;;;;;;;5.38;3.42;;;;;;;;;;5051047;28;20021;-83
2023/06/22 00:11:48;;;;;;;5.13;3.33;;;;;;;;;;5049805;28;20028;-84
2023/06/22 00:14:14;;;;;;;6.45;3.05;;;;;;;;;;5033988;28;20021;-82
2023/06/22 00:16:42;;;;;;;6.00;3.28;;;;;;;;;;5050688;28;20029;-84
2023/06/22 00:19:11;;;;;;;5.35;3.20;;;;;;;;;;5050472;28;20052;-84
2023/06/22 00:21:38;;;;;;;8.63;3.40;;;;;;;;;;5042578;28;20084;-84
2023/06/22 00:24:04;;;;;;;4.47;3.08;;;;;;;;;;5050640;28;20021;-83
2023/06/22 00:26:30;;;;;;;6.70;3.17;;;;;;;;;;5033551;28;20033;-83
2023/06/22 00:28:56;;;;;;;8.05;3.25;;;;;;;;;;5048857;28;20057;-84
2023/06/22 00:31:22;;;;;;;4.05;2.92;;;;;;;;;;5033953;28;20132;-84
2023/06/22 00:33:50;;;;;;;4.85;3.08;;;;;;;;;;5050048;28;20117;-83
2023/06/22 00:36:18;;;;;;;4.82;3.50;;;;;;;;;;5033603;28;20056;-83
2023/06/22 00:38:44;;;;;;;6.80;3.28;;;;;;;;;;5049848;28;20043;-84
2023/06/22 00:41:10;;;;;;;4.68;2.90;;;;;;;;;;5034018;28;20017;-83
2023/06/22 00:43:36;;;;;;;4.28;3.38;;;;;;;;;;5050188;28;20087;-83
2023/06/22 00:46:03;;;;;;;6.07;3.35;;;;;;;;;;5049887;28;20041;-83
2023/06/22 00:48:29;;;;;;;7.20;3.22;;;;;;;;;;5031791;28;20021;-84
2023/06/22 00:50:55;;;;;;;5.10;3.13;;;;;;;;;;5032542;28;20112;-83
2023/06/22 00:53:21;;;;;;;4.30;3.03;;;;;;;;;;5049871;28;20032;-84
2023/06/22 00:55:51;;;;;;;5.13;3.20;;;;;;;;;;5048819;28;20037;-84
2023/06/22 00:58:17;;;;;;;6.15;2.60;;;;;;;;;;5034103;28;20598;-84
2023/06/22 01:00:45;;;;;;;8.02;2.80;;;;;;;;;;5034227;28;20030;-82
2023/06/22 01:03:11;;;;;;;5.03;3.22;;;;;;;;;;5038791;28;20033;-83
2023/06/22 01:05:38;;;;;;;6.32;3.30;;;;;;;;;;5033494;28;20030;-84
2023/06/22 01:08:20;;;;;;;5.68;3.42;;;;;;;;;;5050853;28;20025;-83
2023/06/22 01:10:58;;;;;;;5.78;3.63;;;;;;;;;;5050035;28;20033;-84
2023/06/22 01:13:43;;;;;;;4.40;3.00;;;;;;;;;;5049832;28;20439;-84
2023/06/22 01:16:16;;;;;;;6.07;3.17;;;;;;;;;;5050779;28;20056;-84
2023/06/22 01:18:44;;;;;;;3.55;3.13;;;;;;;;;;5049602;28;20108;-83
2023/06/22 01:21:14;;;;;;;5.18;3.15;;;;;;;;;;5049825;28;20033;-83
2023/06/22 01:23:59;;;;;;;4.75;2.92;;;;;;;;;;5032915;28;20049;-84
2023/06/22 01:26:27;;;;;;;6.80;3.08;;;;;;;;;;5048792;28;20021;-84
2023/06/22 01:28:55;;;;;;;5.15;3.22;;;;;;;;;;5048980;28;20026;-82
2023/06/22 01:31:22;;;;;;;4.80;3.28;;;;;;;;;;5033430;28;20096;-84
2023/06/22 01:33:59;;;;;;;3.72;2.80;;;;;;;;;;5033273;28;20036;-84
2023/06/22 01:36:26;;;;;;;5.05;3.35;;;;;;;;;;5048659;28;20068;-84
2023/06/22 01:38:52;;;;;;;4.20;2.88;;;;;;;;;;5033229;28;20120;-84
2023/06/22 01:41:19;;;;;;;6.22;3.38;;;;;;;;;;5032393;28;20071;-83
2023/06/22 01:43:46;;;;;;;9.40;3.15;;;;;;;;;;5032542;28;20605;-83
2023/06/22 01:46:12;;;;;;;6.25;3.30;;;;;;;;;;5048802;28;20025;-85
2023/06/22 01:48:39;;;;;;;3.97;3.10;;;;;;;;;;5048536;28;20083;-83
2023/06/22 01:51:05;;;;;;;4.45;3.00;;;;;;;;;;5048826;28;20116;-83
2023/06/22 01:53:31;;;;;;;8.93;3.30;;;;;;;;;;5048982;28;20090;-83
2023/06/22 01:56:00;;;;;;;4.75;3.38;;;;;;;;;;5048619;28;20025;-82
2023/06/22 01:58:29;;;;;;;7.03;3.30;;;;;;;;;;5033079;28;20064;-81
2023/06/22 02:01:25;;;;;;;6.30;3.00;;;;;;;;;;5031162;28;20033;-84
2023/06/22 02:03:54;;;;;;;6.20;2.63;;;;;;;;;;5019116;28;20041;-84
2023/06/22 02:06:36;;;;;;;6.57;3.60;;;;;;;;;;5047074;28;20033;-83
2023/06/22 02:09:03;;;;;;;6.97;3.05;;;;;;;;;;5048233;28;20398;-84
2023/06/22 02:11:30;;;;;;;5.93;3.00;;;;;;;;;;5048821;28;20454;-84
2023/06/22 02:13:59;;;;;;;7.05;3.65;;;;;;;;;;5029861;28;20040;-84
2023/06/22 02:16:29;;;;;;;5.78;2.70;;;;;;;;;;5047654;28;20025;-84
2023/06/22 02:18:56;;;;;;;4.45;3.00;;;;;;;;;;5031249;28;20040;-85
2023/06/22 02:21:24;;;;;;;8.23;3.00;;;;;;;;;;5047728;28;20124;-84
2023/06/22 02:23:50;;;;;;;5.57;3.15;;;;;;;;;;5037758;28;20098;-83
2023/06/22 02:26:19;;;;;;;5.50;3.00;;;;;;;;;;5048273;28;20128;-83
2023/06/22 02:28:45;;;;;;;6.22;2.83;;;;;;;;;;5032327;28;20022;-81
2023/06/22 02:31:11;;;;;;;4.68;2.92;;;;;;;;;;5048134;28;20030;-84
2023/06/22 02:33:37;;;;;;;6.72;3.13;;;;;;;;;;5030770;28;20026;-82
2023/06/22 02:36:05;;;;;;;4.10;2.90;;;;;;;;;;5032148;28;20021;-82
2023/06/22 02:38:33;;;;;;;4.13;2.60;;;;;;;;;;5032302;28;20032;-82
2023/06/22 02:40:59;;;;;;;6.47;3.33;;;;;;;;;;5046903;28;20331;-84
2023/06/22 02:43:25;;;;;;;4.40;3.25;;;;;;;;;;5048281;28;20037;-82
2023/06/22 02:45:51;;;;;;;4.70;3.30;;;;;;;;;;5047663;28;20028;-83
2023/06/22 02:48:17;;;;;;;5.32;3.10;;;;;;;;;;5032190;28;20400;-82
2023/06/22 02:50:43;;;;;;;5.43;3.30;;;;;;;;;;5031729;28;20025;-82
2023/06/22 02:53:09;;;;;;;5.32;3.28;;;;;;;;;;5032083;28;20083;-82
2023/06/22 02:55:35;;;;;;;3.92;3.00;;;;;;;;;;5052599;28;20022;-84
2023/06/22 02:58:04;;;;;;;4.90;3.00;;;;;;;;;;5038156;28;20474;-81
2023/06/22 03:00:30;;;;;;;8.25;3.25;;;;;;;;;;5054575;28;20030;-87
2023/06/22 03:02:57;;;;;;;4.15;3.03;;;;;;;;;;5039613;28;20053;-84
2023/06/22 03:05:23;;;;;;;6.43;3.10;;;;;;;;;;5040755;28;20022;-82
2023/06/22 03:07:51;;;;;;;5.85;3.00;;;;;;;;;;5058275;28;20039;-81
2023/06/22 03:10:17;;;;;;;5.15;3.22;;;;;;;;;;5055105;28;20148;-83
2023/06/22 03:12:44;;;;;;;4.85;3.20;;;;;;;;;;5036434;28;20026;-81
2023/06/22 03:15:11;;;;;;;5.85;3.08;;;;;;;;;;5034380;28;20037;-84
2023/06/22 03:17:40;;;;;;;7.85;3.40;;;;;;;;;;5036501;28;20079;-83
2023/06/22 03:20:09;;;;;;;5.25;3.40;;;;;;;;;;5043771;28;20095;-85
2023/06/22 03:22:35;;;;;;;4.32;2.90;;;;;;;;;;5052547;28;20041;-83
2023/06/22 03:25:02;;;;;;;5.53;3.33;;;;;;;;;;5035109;28;20071;-84
2023/06/22 03:27:27;;;;;;;5.75;3.13;;;;;;;;;;5053432;28;20021;-82
2023/06/22 03:29:53;;;;;;;8.45;3.60;;;;;;;;;;5052272;28;20044;-83
2023/06/22 03:32:19;;;;;;;8.02;3.33;;;;;;;;;;5037216;28;20029;-85
2023/06/22 03:34:49;;;;;;;5.70;3.10;;;;;;;;;;5035097;28;20030;-85
2023/06/22 03:37:15;;;;;;;5.07;3.13;;;;;;;;;;5033606;28;20057;-82
2023/06/22 03:39:41;;;;;;;5.65;3.15;;;;;;;;;;5050668;28;20033;-84
2023/06/22 03:42:08;;;;;;;5.20;3.00;;;;;;;;;;5051137;28;20037;-84
2023/06/22 03:44:36;;;;;;;6.03;3.17;;;;;;;;;;5049256;28;20033;-85
2023/06/22 03:47:02;;;;;;;4.47;3.28;;;;;;;;;;5030744;28;20036;-86
2023/06/22 03:49:28;;;;;;;5.63;2.95;;;;;;;;;;5049560;28;20025;-85
2023/06/22 03:51:54;;;;;;;8.10;3.83;;;;;;;;;;5049912;28;20095;-83
2023/06/22 03:54:20;;;;;;;4.65;2.95;;;;;;;;;;5048077;28;20029;-85
2023/06/22 03:56:46;;;;;;;6.13;3.15;;;;;;;;;;5057683;28;20044;-80
2023/06/22 03:59:12;;;;;;;4.90;2.90;;;;;;;;;;5043096;28;20030;-78
2023/06/22 04:01:38;;;;;;;7.18;2.92;;;;;;;;;;5063890;28;20655;-79
2023/06/22 04:04:04;;;;;;;10.38;2.97;;;;;;;;;;5059572;28;20025;-82
2023/06/22 04:06:30;;;;;;;5.05;3.13;;;;;;;;;;5060469;28;20056;-83
2023/06/22 04:08:56;;;;;;;5.72;3.20;;;;;;;;;;5040731;28;20029;-86
2023/06/22 04:11:22;;;;;;;6.13;3.38;;;;;;;;;;5059991;28;20052;-81
2023/06/22 04:13:49;;;;;;;5.20;2.83;;;;;;;;;;5055221;28;20078;-85
2023/06/22 04:16:15;;;;;;;6.22;3.20;;;;;;;;;;5054612;28;20029;-84
2023/06/22 04:18:41;;;;;;;5.43;3.05;;;;;;;;;;5052854;28;20116;-83
2023/06/22 04:21:07;;;;;;;6.03;3.03;;;;;;;;;;5052635;28;20025;-85
2023/06/22 04:23:33;;;;;;;5.00;3.00;;;;;;;;;;5033751;28;20025;-87
2023/06/22 04:26:00;;;;;;;5.25;3.08;;;;;;;;;;5035645;28;20351;-85
2023/06/22 04:28:26;;;;;;;6.25;3.58;;;;;;;;;;5048246;28;20454;-85
2023/06/22 04:30:52;;;;;;;6.85;3.45;;;;;;;;;;5034592;28;20049;-84
2023/06/22 04:33:18;;;;;;;8.80;3.53;;;;;;;;;;5051151;28;20076;-85
2023/06/22 04:35:47;;;;;;;7.28;3.50;;;;;;;;;;5051246;28;20032;-86
2023/06/22 04:38:13;;;;;;;10.07;4.07;;;;;;;;;;5052823;28;20037;-84
2023/06/22 04:40:40;;;;;;;4.95;3.60;;;;;;;;;;5054138;28;20098;-83
2023/06/22 04:43:06;;;;;;;8.18;3.78;;;;;;;;;;5052880;28;20037;-84
2023/06/22 04:45:33;;;;;;;6.47;3.33;;;;;;;;;;5051763;28;20091;-83
2023/06/22 04:47:59;;;;;;;5.75;2.97;;;;;;;;;;5051678;28;20029;-84
2023/06/22 04:50:25;;;;;;;8.70;3.13;;;;;;;;;;5056160;28;20033;-83
2023/06/22 04:52:51;;;;;;;5.30;3.15;;;;;;;;;;5037277;28;20095;-85
2023/06/22 04:55:19;;;;;;;9.50;3.55;;;;;;;;;;5051290;28;20026;-85
2023/06/22 04:57:49;;;;;;;6.55;3.47;;;;;;;;;;5050178;28;20446;-83
2023/06/22 05:00:19;;;;;;;5.25;3.22;;;;;;;;;;5050581;28;20029;-85
2023/06/22 05:02:46;;;;;;;6.57;3.55;;;;;;;;;;5034098;28;20033;-86
2023/06/22 05:05:15;;;;;;;8.25;3.40;;;;;;;;;;5050900;28;20038;-86
2023/06/22 05:07:45;;;;;;;10.38;4.53;;;;;;;;;;5049935;28;20021;-86
2023/06/22 05:10:12;;;;;;;7.45;3.83;;;;;;;;;;5034764;28;20025;-85
2023/06/22 05:12:39;;;;;;;7.22;3.88;;;;;;;;;;5050584;28;20021;-86
2023/06/22 05:15:06;;;;;;;9.07;3.80;;;;;;;;;;5049554;28;20030;-86
2023/06/22 05:17:32;;;;;;;6.68;3.72;;;;;;;;;;5050552;28;20057;-85
2023/06/22 05:19:59;;;;;;;9.00;4.05;;;;;;;;;;5050205;28;20064;-87
2023/06/22 05:22:24;;;;;;;6.03;3.83;;;;;;;;;;5050315;28;20033;-85
2023/06/22 05:24:50;;;;;;;8.18;3.22;;;;;;;;;;5049441;28;20059;-86
2023/06/22 05:27:16;;;;;;;10.40;3.75;;;;;;;;;;5048921;28;20557;-85
2023/06/22 05:29:43;;;;;;;8.80;3.95;;;;;;;;;;5046744;28;20021;-85
2023/06/22 05:32:09;;;;;;;7.32;3.80;;;;;;;;;;5034265;28;20052;-85
2023/06/22 05:34:35;;;;;;;7.53;4.55;;;;;;;;;;5034251;28;20104;-87
2023/06/22 05:37:03;;;;;;;9.55;4.00;;;;;;;;;;5033277;28;20113;-85
2023/06/22 05:39:31;;;;;;;7.65;4.00;;;;;;;;;;5049067;28;20490;-85
2023/06/22 05:41:57;;;;;;;16.63;4.53;;;;;;;;;;5040577;28;20032;-84
2023/06/22 05:44:23;;;;;;;6.65;4.25;;;;;;;;;;5048933;28;20021;-84
2023/06/22 05:46:51;;;;;;;9.60;4.22;;;;;;;;;;5033455;28;20051;-85
2023/06/22 05:49:17;;;;;;;13.75;4.55;;;;;;;;;;5048413;28;20026;-85
2023/06/22 05:51:43;;;;;;;8.25;4.80;;;;;;;;;;5034142;28;20348;-86
2023/06/22 05:54:13;;;;;;;9.52;4.57;;;;;;;;;;5048663;28;20038;-86
2023/06/22 05:56:39;;;;;;;7.07;4.80;;;;;;;;;;5049288;28;20445;-86
2023/06/22 05:59:05;;;;;;;12.15;4.68;;;;;;;;;;5033196;28;20088;-85
2023/06/22 06:01:34;;;;;;;11.57;4.18;;;;;;;;;;5048736;28;20091;-85
2023/06/22 06:04:00;;;;;;;10.93;4.00;;;;;;;;;;5048532;28;20456;-86
2023/06/22 06:06:28;;;;;;;8.68;3.97;;;;;;;;;;5048887;28;20037;-85
2023/06/22 06:08:54;;;;;;;7.28;3.47;;;;;;;;;;5049427;28;20366;-84
2023/06/22 06:11:20;;;;;;;10.40;4.53;;;;;;;;;;5049253;28;20117;-85
2023/06/22 06:13:46;;;;;;;9.75;3.60;;;;;;;;;;5046628;28;20025;-87
2023/06/22 06:16:12;;;;;;;9.48;4.63;;;;;;;;;;5048772;28;20076;-85
2023/06/22 06:18:38;;;;;;;10.57;4.00;;;;;;;;;;5049123;28;20033;-84
2023/06/22 06:21:04;;;;;;;10.38;4.40;;;;;;;;;;5048616;28;20052;-84
2023/06/22 06:23:30;;;;;;;8.82;4.22;;;;;;;;;;5032207;28;20026;-85
2023/06/22 06:25:56;;;;;;;7.60;4.22;;;;;;;;;;5047759;28;20063;-84
2023/06/22 06:28:22;;;;;;;7.70;5.05;;;;;;;;;;5045844;28;20033;-82
2023/06/22 06:30:48;;;;;;;8.43;5.03;;;;;;;;;;5048553;28;20021;-83
2023/06/22 06:33:14;;;;;;;11.35;5.55;;;;;;;;;;5032307;28;20445;-83
2023/06/22 06:35:40;;;;;;;8.48;5.40;;;;;;;;;;5031931;28;20108;-81
2023/06/22 06:38:06;;;;;;;11.85;6.13;;;;;;;;;;5049100;28;20044;-87
2023/06/22 06:40:32;;;;;;;8.65;5.63;;;;;;;;;;5047814;28;20025;-83
2023/06/22 06:42:58;;;;;;;8.85;5.95;;;;;;;;;;5033023;28;20835;-84
2023/06/22 06:45:25;;;;;;;10.82;6.20;;;;;;;;;;5048739;28;20021;-82
2023/06/22 06:47:51;;;;;;;9.77;6.40;;;;;;;;;;5048622;28;20033;-84
2023/06/22 06:50:18;;;;;;;10.18;6.30;;;;;;;;;;5048201;28;20025;-84
2023/06/22 06:52:44;;;;;;;9.63;5.90;;;;;;;;;;5047975;28;20029;-82
2023/06/22 06:55:11;;;;;;;14.45;6.25;;;;;;;;;;5048047;28;20405;-82
2023/06/22 06:57:41;;;;;;;7.20;6.28;;;;;;;;;;5046773;28;20037;-83
2023/06/22 07:00:09;;;;;;;12.40;6.03;;;;;;;;;;5031469;28;20029;-84
2023/06/22 07:02:36;;;;;;;11.13;6.22;;;;;;;;;;5028678;28;20032;-84
2023/06/22 07:05:04;;;;;;;9.73;6.20;;;;;;;;;;5031471;28;20112;-84
2023/06/22 07:07:30;;;;;;;7.78;6.00;;;;;;;;;;5047873;28;20029;-84
2023/06/22 07:09:56;;;;;;;16.40;7.03;;;;;;;;;;5046950;28;20029;-84
2023/06/22 07:12:22;;;;;;;12.25;6.38;;;;;;;;;;5047785;28;20044;-85
2023/06/22 07:14:48;;;;;;;11.25;5.10;;;;;;;;;;5026818;28;20025;-84
2023/06/22 07:17:14;;;;;;;8.90;6.40;;;;;;;;;;5030290;28;21009;-84
2023/06/22 07:19:42;;;;;;;11.57;6.25;;;;;;;;;;5048027;28;20061;-84
2023/06/22 07:22:08;;;;;;;11.65;6.65;;;;;;;;;;5045930;28;20025;-82
2023/06/22 07:24:37;;;;;;;8.85;6.60;;;;;;;;;;5045967;28;20069;-81
2023/06/22 07:27:03;;;;;;;12.00;7.38;;;;;;;;;;5046542;28;20037;-80
2023/06/22 07:29:29;;;;;;;10.02;7.18;;;;;;;;;;5029870;28;20049;-81
2023/06/22 07:31:56;;;;;;;11.77;7.82;;;;;;;;;;5045860;28;20030;-80
2023/06/22 07:34:22;;;;;;;12.48;8.45;;;;;;;;;;5046496;28;20021;-82
2023/06/22 07:36:48;;;;;;;12.32;7.75;;;;;;;;;;5047067;28;20021;-81
2023/06/22 07:39:16;;;;;;;9.15;6.60;;;;;;;;;;5032840;28;20378;-82
2023/06/22 07:41:42;;;;;;;10.68;7.78;;;;;;;;;;5050765;28;20025;-81
2023/06/22 07:44:08;;;;;;;10.82;6.72;;;;;;;;;;5050376;28;20430;-79
2023/06/22 07:46:34;;;;;;;11.15;7.50;;;;;;;;;;5034696;28;20033;-81
2023/06/22 07:49:01;;;;;;;11.73;7.85;;;;;;;;;;5035606;28;20038;-80
2023/06/22 07:51:27;;;;;;;10.23;6.97;;;;;;;;;;5035415;28;20091;-81
2023/06/22 07:53:53;;;;;;;7.60;6.05;;;;;;;;;;5050788;28;20021;-82
2023/06/22 07:56:20;;;;;;;12.50;7.88;;;;;;;;;;5051312;28;20030;-81
2023/06/22 07:58:46;;;;;;;14.43;8.20;;;;;;;;;;5035366;28;20457;-82
2023/06/22 08:01:12;;;;;;;13.73;8.15;;;;;;;;;;5034517;28;20033;-81
2023/06/22 08:03:39;;;;;;;11.52;8.15;;;;;;;;;;5034950;28;20040;-81
2023/06/22 08:06:05;;;;;;;13.13;8.35;;;;;;;;;;5034803;28;20097;-80
2023/06/22 08:08:32;;;;;;;18.77;9.45;;;;;;;;;;5034160;28;20021;-81
2023/06/22 08:10:58;;;;;;;14.82;9.02;;;;;;;;;;5034460;28;20144;-81
2023/06/22 08:13:24;;;;;;;10.50;8.50;;;;;;;;;;5051272;28;20017;-80
2023/06/22 08:15:50;;;;;;;16.40;9.32;;;;;;;;;;5051254;28;20036;-80
2023/06/22 08:18:16;;;;;;;15.18;9.02;;;;;;;;;;5051513;28;20484;-82
2023/06/22 08:20:42;;;;;;;13.73;10.60;;;;;;;;;;5051124;28;20025;-82
2023/06/22 08:23:08;;;;;;;16.48;9.57;;;;;;;;;;5031274;28;20033;-81
2023/06/22 08:25:40;;;;;;;15.63;9.50;;;;;;;;;;5037427;28;20107;-81
2023/06/22 08:28:09;;;;;;;13.80;8.50;;;;;;;;;;5050057;28;20033;-81
2023/06/22 08:30:35;;;;;;;12.57;7.50;;;;;;;;;;5050623;28;20110;-81
2023/06/22 08:33:01;;;;;;;16.05;7.18;;;;;;;;;;5067928;28;20075;-81
2023/06/22 08:35:29;;;;;;;11.40;8.02;;;;;;;;;;5050629;28;20531;-83
2023/06/22 08:37:59;;;;;;;10.85;6.90;;;;;;;;;;5050312;28;20116;-81
2023/06/22 08:40:25;;;;;;;13.75;6.30;;;;;;;;;;5048660;28;20043;-83
2023/06/22 08:42:51;;;;;;;7.38;6.32;;;;;;;;;;5032595;28;20026;-81
2023/06/22 08:45:17;;;;;;;9.55;6.28;;;;;;;;;;5034473;28;20373;-82
2023/06/22 08:47:43;;;;;;;7.38;5.95;;;;;;;;;;5033748;28;20029;-82
2023/06/22 08:50:13;;;;;;;6.93;6.22;;;;;;;;;;5033148;28;20026;-83
2023/06/22 08:52:41;;;;;;;7.20;6.13;;;;;;;;;;5033193;28;20025;-82
2023/06/22 08:55:10;;;;;;;10.32;5.65;;;;;;;;;;5034310;28;20032;-82
2023/06/22 08:57:43;;;;;;;8.00;6.47;;;;;;;;;;5049298;28;20029;-82
2023/06/22 09:00:20;;;;;;;6.68;5.72;;;;;;;;;;5049173;28;20025;-81
2023/06/22 09:02:46;;;;;;;8.25;6.32;;;;;;;;;;5049228;28;20022;-82
2023/06/22 09:05:12;;;;;;;6.90;5.88;;;;;;;;;;5033233;28;20128;-80
2023/06/22 09:07:38;;;;;;;7.38;6.40;;;;;;;;;;5047660;28;20053;-82
2023/06/22 09:10:05;;;;;;;11.20;6.72;;;;;;;;;;5048215;28;20352;-82
2023/06/22 09:12:32;;;;;;;6.82;5.75;;;;;;;;;;5048570;28;20496;-82
2023/06/22 09:15:00;;;;;;;7.95;6.15;;;;;;;;;;5032560;28;20092;-82
2023/06/22 09:17:26;;;;;;;11.50;6.15;;;;;;;;;;5032798;28;20036;-83
2023/06/22 09:19:52;;;;;;;8.18;6.60;;;;;;;;;;5049402;28;20175;-79
2023/06/22 09:22:18;;;;;;;6.82;5.90;;;;;;;;;;5048383;28;20029;-80
2023/06/22 09:24:44;;;;;;;8.90;6.65;;;;;;;;;;5032227;28;20017;-80
2023/06/22 09:27:10;;;;;;;9.15;6.22;;;;;;;;;;5033290;28;20035;-80
2023/06/22 09:29:36;;;;;;;7.13;6.40;;;;;;;;;;5048672;28;20116;-80
2023/06/22 09:32:05;;;;;;;9.73;6.60;;;;;;;;;;5048873;28;20091;-80
2023/06/22 09:34:31;;;;;;;6.72;5.80;;;;;;;;;;5048131;28;20063;-80
2023/06/22 09:37:00;;;;;;;10.65;6.25;;;;;;;;;;5048582;28;20458;-80
2023/06/22 09:39:26;;;;;;;9.15;6.28;;;;;;;;;;5047932;28;20029;-80
2023/06/22 09:41:52;;;;;;;5.90;5.13;;;;;;;;;;5031548;28;20036;-79
2023/06/22 09:44:18;;;;;;;6.63;5.95;;;;;;;;;;5048437;28;20025;-79
2023/06/22 09:46:44;;;;;;;9.18;6.03;;;;;;;;;;5030516;28;20026;-79
2023/06/22 09:49:10;;;;;;;9.70;5.60;;;;;;;;;;5031398;28;20021;-83
2023/06/22 09:51:36;;;;;;;8.02;5.95;;;;;;;;;;5049962;28;20039;-83
2023/06/22 09:54:02;;;;;;;8.57;5.85;;;;;;;;;;5033731;28;20035;-83
2023/06/22 09:56:29;;;;;;;9.85;5.57;;;;;;;;;;5033059;28;20025;-84
2023/06/22 09:58:55;;;;;;;7.40;5.28;;;;;;;;;;5049432;28;20041;-83
2023/06/22 10:01:22;;;;;;;9.50;5.57;;;;;;;;;;5047852;28;20118;-83
2023/06/22 10:03:48;;;;;;;6.40;5.20;;;;;;;;;;5033256;28;20026;-83
2023/06/22 10:06:14;;;;;;;7.38;5.78;;;;;;;;;;5048056;28;20084;-84
2023/06/22 10:08:40;;;;;;;8.30;5.55;;;;;;;;;;5032142;28;20032;-84
2023/06/22 10:11:09;;;;;;;7.75;5.88;;;;;;;;;;5036302;28;20029;-82
2023/06/22 10:13:35;;;;;;;6.47;5.75;;;;;;;;;;5042884;28;20029;-83
2023/06/22 10:16:01;;;;;;;6.88;6.18;;;;;;;;;;5033583;28;20033;-85
2023/06/22 10:18:27;;;;;;;8.57;6.15;;;;;;;;;;5048743;28;20044;-85
2023/06/22 10:20:53;;;;;;;11.30;6.05;;;;;;;;;;5031593;28;20029;-85
2023/06/22 10:23:19;;;;;;;17.05;6.30;;;;;;;;;;5048398;28;20036;-84
2023/06/22 10:25:45;;;;;;;15.07;7.38;;;;;;;;;;5046915;28;20036;-84
2023/06/22 10:28:12;;;;;;;13.35;7.85;;;;;;;;;;5048803;28;20472;-85
2023/06/22 10:30:41;;;;;;;10.25;9.15;;;;;;;;;;5032945;28;20013;-85
2023/06/22 10:33:07;;;;;;;15.13;9.23;;;;;;;;;;5032591;28;20033;-85
2023/06/22 10:35:33;;;;;;;19.20;9.68;;;;;;;;;;5031976;28;20365;-86
2023/06/22 10:37:59;;;;;;;21.15;11.13;;;;;;;;;;5045648;28;20117;-86
2023/06/22 10:40:25;;;;;;;24.95;11.95;;;;;;;;;;5048929;28;20466;-85
2023/06/22 10:42:53;;;;;;;28.38;13.60;;;;;;;;;;5033495;28;20033;-85
2023/06/22 10:45:19;;;;;;;20.17;13.82;;;;;;;;;;5048004;28;20032;-85
2023/06/22 10:47:45;;;;;;;19.98;13.73;;;;;;;;;;5032619;28;20025;-84
2023/06/22 10:50:14;;;;;;;30.10;16.05;;;;;;;;;;5031806;28;20033;-84
2023/06/22 10:52:42;;;;;;;25.40;17.95;;;;;;;;;;5032366;28;20108;-84
2023/06/22 10:55:09;;;;;;;28.83;17.77;;;;;;;;;;5049015;28;20649;-82
2023/06/22 10:57:36;;;;;;;28.45;21.90;;;;;;;;;;5032113;28;20021;-81
2023/06/22 11:00:05;;;;;;;25.75;20.30;;;;;;;;;;5036973;28;20029;-83
2023/06/22 11:02:31;;;;;;;41.70;21.35;;;;;;;;;;5031955;28;20351;-82
2023/06/22 11:05:00;;;;;;;49.10;27.83;;;;;;;;;;5030253;28;20120;-82
2023/06/22 11:07:27;;;;;;;47.17;28.98;;;;;;;;;;5050763;28;20025;-80
2023/06/22 11:09:56;;;;;;;55.80;32.92;;;;;;;;;;5047938;28;20455;-82
2023/06/22 11:12:22;;;;;;;75.28;37.28;;;;;;;;;;5047478;28;20052;-85
2023/06/22 11:14:47;;;;;;;69.90;38.80;;;27.00;51.50;;;;;;5051863;28;20428;-82
2023/06/22 11:17:13;;;;;;;95.57;40.78;;;;;;;;;;5039553;28;20033;-81
2023/06/22 11:19:39;;;;;;;101.88;43.13;;;;;;;;;;5050293;28;20033;-78
2023/06/22 11:22:05;;;;;;;76.18;38.20;;;;;;;;;;5056241;28;20044;-78
2023/06/22 11:24:32;;;;;;;67.55;36.90;;;;;;;;;;5066884;28;20077;-79
2023/06/22 11:26:58;;;;;;;71.80;38.38;;;22.10;99.90;;;;;;5048777;28;20034;-83
2023/06/22 11:29:25;;;;;;;73.93;40.03;;;22.10;99.90;;;;;;5035645;28;20036;-84
2023/06/22 11:31:51;;;;;;;101.03;44.53;;;22.10;99.90;;;;;;5035446;28;20026;-83
2023/06/22 11:34:18;;;;;;;96.57;45.63;;;22.20;99.90;;;;;;5035635;28;20032;-84
2023/06/22 11:36:44;;;;;;;78.43;44.17;;;22.30;99.90;;;;;;5036055;28;20030;-84
2023/06/22 11:39:11;;;;;;;89.97;45.03;;;22.40;99.90;;;;;;5035150;28;20029;-85
2023/06/22 11:41:37;;;;;;;66.45;39.05;;;22.40;99.90;;;;;;5036474;28;20037;-85
2023/06/22 11:44:04;;;;;;;68.72;39.65;;;22.50;99.90;;;;;;5035409;28;20038;-83
2023/06/22 11:46:31;;;;;;;55.85;35.65;;;;;;;;;;5052806;28;20037;-85
2023/06/22 11:48:57;;;;;;;63.78;36.40;;;;;;;;;;5042227;28;20167;-85
2023/06/22 11:51:23;;;;;;;59.33;35.53;;;;;;;;;;5051754;28;20072;-85
2023/06/22 11:53:49;;;;;;;137.52;46.30;;;22.50;99.90;;;;;;5028441;28;20465;-83
2023/06/22 11:56:15;;;;;;;69.95;36.65;;;;;;;;;;5051988;28;20026;-84
2023/06/22 11:58:43;;;;;;;69.75;37.85;;;22.60;99.90;;;;;;5035946;28;20461;-83
2023/06/22 12:01:14;;;;;;;66.32;38.30;;;22.40;99.90;;;;;;5023609;28;20172;-83
2023/06/22 12:03:41;;;;;;;78.75;41.20;;;;;;;;;;5036706;28;20021;-84
2023/06/22 12:06:07;;;;;;;78.05;43.97;;;;;;;;;;5051607;28;20044;-84
2023/06/22 12:08:34;;;;;;;77.88;44.53;;;22.30;99.90;;;;;;5035290;28;20116;-84
2023/06/22 12:11:00;;;;;;;60.38;37.75;;;22.80;99.90;;;;;;5035532;28;20026;-84
2023/06/22 12:13:26;;;;;;;43.47;32.30;;;;;;;;;;5053240;28;20041;-85
2023/06/22 12:15:52;;;;;;;33.65;26.70;;;;;;;;;;5044813;28;20029;-86
2023/06/22 12:18:20;;;;;;;32.72;25.15;;;;;;;;;;5051346;28;20021;-85
2023/06/22 12:20:46;;;;;;;27.20;20.88;;;23.00;99.90;;;;;;5051571;28;20045;-86
2023/06/22 12:23:11;;;;;;;27.20;21.73;;;23.20;99.90;;;;;;5034278;28;20056;-86
2023/06/22 12:25:37;;;;;;;28.63;23.92;;;;;;;;;;5035238;28;20033;-86
2023/06/22 12:28:04;;;;;;;23.67;19.90;;;;;;;;;;5034956;28;20468;-87
2023/06/22 12:30:32;;;;;;;23.95;21.17;;;;;;;;;;5035913;28;20018;-86
2023/06/22 12:32:58;;;;;;;21.10;18.80;;;23.00;99.90;;;;;;5050908;28;20049;-87
2023/06/22 12:35:24;;;;;;;19.33;17.08;;;23.20;99.90;;;;;;5034454;28;20060;-87
2023/06/22 12:37:52;;;;;;;29.55;20.15;;;23.40;99.90;;;;;;5034874;28;20084;-86
2023/06/22 12:40:18;;;;;;;22.27;18.45;;;23.50;99.90;;;;;;5032977;28;20057;-87
2023/06/22 12:42:45;;;;;;;19.05;14.90;;;23.60;99.90;;;;;;5034443;28;20061;-87
2023/06/22 12:45:11;;;;;;;19.42;16.70;;;;;;;;;;5034413;28;20040;-88
2023/06/22 12:47:37;;;;;;;17.50;15.65;;;;;;;;;;5034629;28;20103;-87
2023/06/22 12:50:03;;;;;;;16.02;14.23;;;;;;;;;;5051267;28;20021;-87
2023/06/22 12:52:32;;;;;;;15.45;12.55;;;;;;;;;;5049785;28;20025;-88
2023/06/22 12:54:58;;;;;;;17.60;13.77;;;;;;;;;;5034747;28;20026;-87
2023/06/22 12:57:26;;;;;;;15.70;12.68;;;;;;;;;;5051347;28;20029;-88
2023/06/22 12:59:52;;;;;;;12.55;10.88;;;;;;;;;;5051407;28;20498;-88
2023/06/22 13:02:18;;;;;;;13.35;11.93;;;;;;;;;;5050900;28;20056;-88
2023/06/22 13:04:44;;;;;;;15.02;13.30;;;;;;;;;;5034385;28;20055;-88
2023/06/22 13:07:10;;;;;;;15.35;11.85;;;;;;;;;;5034278;28;20045;-88
2023/06/22 13:09:37;;;;;;;11.68;10.48;;;;;;;;;;5034319;28;20021;-88
2023/06/22 13:12:06;;;;;;;14.60;10.68;;;;;;;;;;5051029;28;20458;-88
2023/06/22 13:14:36;;;;;;;13.52;11.48;;;;;;;;;;5031950;28;20030;-88
2023/06/22 13:17:05;;;;;;;14.10;10.85;;;;;;;;;;5034326;28;20025;-88
2023/06/22 13:19:32;;;;;;;14.20;9.95;;;;;;;;;;5034338;28;20036;-87
2023/06/22 13:22:02;;;;;;;9.80;8.45;;;23.70;99.90;;;;;;5034229;28;20091;-88
2023/06/22 13:24:28;;;;;;;13.65;9.63;;;25.80;99.90;;;;;;5034441;28;20033;-87
2023/06/22 13:26:53;;;;;;;9.68;7.95;;;25.70;99.90;;;;;;5050639;28;20052;-87
2023/06/22 13:29:19;;;;;;;11.07;8.50;;;25.70;99.90;;;;;;5034716;28;20022;-88
2023/06/22 13:31:44;;;;;;;7.32;6.43;;;25.70;99.90;;;;;;5034086;28;20025;-87
2023/06/22 13:34:10;;;;;;;8.88;6.65;;;25.80;99.90;;;;;;5033656;28;20026;-88
2023/06/22 13:36:36;;;;;;;10.48;6.90;;;26.00;99.90;;;;;;5033522;28;20033;-88
2023/06/22 13:39:01;;;;;;;8.55;6.60;;;26.10;99.90;;;;;;5033818;28;20167;-87
2023/06/22 13:41:27;;;;;;;9.05;6.72;;;26.20;99.90;;;;;;5033623;28;20049;-87
2023/06/22 13:43:52;;;;;;;10.07;6.95;;;26.20;99.90;;;;;;5050117;28;20114;-87
2023/06/22 13:46:18;;;;;;;8.63;6.53;;;26.20;99.90;;;;;;5049213;28;20503;-87
2023/06/22 13:48:44;;;;;;;8.73;6.60;;;26.50;99.90;;;;;;5033849;28;20033;-87
2023/06/22 13:51:09;;;;;;;8.38;6.15;;;26.60;99.90;;;;;;5032945;28;20036;-88
2023/06/22 13:53:35;;;;;;;6.85;5.72;;;26.60;99.90;;;;;;5049895;28;20021;-87
2023/06/22 13:56:00;;;;;;;5.88;5.28;;;26.70;99.90;;;;;;5032925;28;20036;-87
2023/06/22 13:58:28;;;;;;;7.38;5.28;;;26.70;99.90;;;;;;5049952;28;20116;-87
2023/06/22 14:00:54;;;;;;;5.65;4.70;;;27.00;99.90;;;;;;5033353;28;20116;-88
2023/06/22 14:03:19;;;;;;;6.60;4.93;;;27.20;99.90;;;;;;5045484;28;20053;-88
2023/06/22 14:05:48;;;;;;;5.32;4.30;;;27.30;99.90;;;;;;5049954;28;20025;-87
2023/06/22 14:08:14;;;;;;;5.25;4.00;;;27.30;99.90;;;;;;5049732;28;20045;-88
2023/06/22 14:10:40;;;;;;;4.28;3.33;;;27.20;99.90;;;;;;5032522;28;20018;-87
2023/06/22 14:13:06;;;;;;;5.13;4.15;;;27.20;99.90;;;;;;5032795;28;20029;-87
2023/06/22 14:15:36;;;;;;;5.57;3.50;;;27.10;99.90;;;;;;5033249;28;20028;-87
2023/06/22 14:18:02;;;;;;;3.80;3.40;;;27.00;99.90;;;;;;5049517;28;20036;-87